sensor_id;sensor_type;location;lat;lon;timestamp;temperature;humidity
42743;DHT22;28397;44.552;-0.848;2023-02-22T00:01:10;12.20;99.90
42743;DHT22;28397;44.552;-0.848;2023-02-22T00:03:50;12.30;99.90
42743;DHT22;28397;44.552;-0.848;2023-02-22T00:06:18;12.20;99.90
42743;DHT22;28397;44.552;-0.848;2023-02-22T00:08:46;12.10;99.90
42743;DHT22;28397;44.552;-0.848;2023-02-22T00:11:13;12.10;99.90
42743;DHT22;28397;44.552;-0.848;2023-02-22T00:13:39;12.10;99.90
42743;DHT22;28397;44.552;-0.848;2023-02-22T00:16:08;12.10;99.90
42743;DHT22;28397;44.552;-0.848;2023-02-22T00:18:37;12.00;99.90
42743;DHT22;28397;44.552;-0.848;2023-02-22T00:21:03;12.00;99.90
42743;DHT22;28397;44.552;-0.848;2023-02-22T00:23:30;12.00;99.90
42743;DHT22;28397;44.552;-0.848;2023-02-22T00:25:57;12.00;99.90
42743;DHT22;28397;44.552;-0.848;2023-02-22T00:28:23;11.90;99.90
42743;DHT22;28397;44.552;-0.848;2023-02-22T00:30:49;11.90;99.90
42743;DHT22;28397;44.552;-0.848;2023-02-22T00:33:15;11.90;99.90
42743;DHT22;28397;44.552;-0.848;2023-02-22T00:35:41;11.90;99.90
42743;DHT22;28397;44.552;-0.848;2023-02-22T00:38:11;11.90;99.90
42743;DHT22;28397;44.552;-0.848;2023-02-22T00:40:37;11.80;99.90
42743;DHT22;28397;44.552;-0.848;2023-02-22T00:43:05;11.90;99.90
42743;DHT22;28397;44.552;-0.848;2023-02-22T00:45:33;11.90;99.90
42743;DHT22;28397;44.552;-0.848;2023-02-22T00:47:59;12.10;99.90
42743;DHT22;28397;44.552;-0.848;2023-02-22T00:50:26;12.00;99.90
42743;DHT22;28397;44.552;-0.848;2023-02-22T00:52:54;11.90;99.90
42743;DHT22;28397;44.552;-0.848;2023-02-22T00:55:24;11.90;99.90
42743;DHT22;28397;44.552;-0.848;2023-02-22T00:57:50;11.80;99.90
42743;DHT22;28397;44.552;-0.848;2023-02-22T01:00:20;11.80;99.90
42743;DHT22;28397;44.552;-0.848;2023-02-22T01:02:47;11.90;99.90
42743;DHT22;28397;44.552;-0.848;2023-02-22T01:05:21;11.90;99.90
42743;DHT22;28397;44.552;-0.848;2023-02-22T01:07:47;11.90;99.90
42743;DHT22;28397;44.552;-0.848;2023-02-22T01:10:14;11.90;99.90
42743;DHT22;28397;44.552;-0.848;2023-02-22T01:12:40;11.90;99.90
42743;DHT22;28397;44.552;-0.848;2023-02-22T01:15:07;11.90;99.90
42743;DHT22;28397;44.552;-0.848;2023-02-22T01:17:38;11.90;99.90
42743;DHT22;28397;44.552;-0.848;2023-02-22T01:20:07;11.90;99.90
42743;DHT22;28397;44.552;-0.848;2023-02-22T01:22:41;11.90;99.90
42743;DHT22;28397;44.552;-0.848;2023-02-22T01:25:15;11.90;99.90
42743;DHT22;28397;44.552;-0.848;2023-02-22T01:27:41;11.80;99.90
42743;DHT22;28397;44.552;-0.848;2023-02-22T01:30:07;11.90;99.90
42743;DHT22;28397;44.552;-0.848;2023-02-22T01:32:37;11.90;99.90
42743;DHT22;28397;44.552;-0.848;2023-02-22T01:35:07;11.90;99.90
42743;DHT22;28397;44.552;-0.848;2023-02-22T01:37:36;11.90;99.90
42743;DHT22;28397;44.552;-0.848;2023-02-22T01:40:04;11.90;99.90
42743;DHT22;28397;44.552;-0.848;2023-02-22T01:42:32;11.90;99.90
42743;DHT22;28397;44.552;-0.848;2023-02-22T01:48:01;11.90;99.90
42743;DHT22;28397;44.552;-0.848;2023-02-22T01:50:31;11.90;99.90
42743;DHT22;28397;44.552;-0.848;2023-02-22T01:52:59;11.90;99.90
42743;DHT22;28397;44.552;-0.848;2023-02-22T01:55:26;11.90;99.90
42743;DHT22;28397;44.552;-0.848;2023-02-22T01:57:52;11.90;99.90
42743;DHT22;28397;44.552;-0.848;2023-02-22T02:00:18;11.90;99.90
42743;DHT22;28397;44.552;-0.848;2023-02-22T02:02:52;11.90;99.90
42743;DHT22;28397;44.552;-0.848;2023-02-22T02:05:24;11.90;99.90
42743;DHT22;28397;44.552;-0.848;2023-02-22T02:07:51;12.00;99.90
42743;DHT22;28397;44.552;-0.848;2023-02-22T02:10:18;12.00;99.90
42743;DHT22;28397;44.552;-0.848;2023-02-22T02:12:46;12.00;99.90
42743;DHT22;28397;44.552;-0.848;2023-02-22T02:15:27;12.00;99.90
42743;DHT22;28397;44.552;-0.848;2023-02-22T02:17:59;11.90;99.90
42743;DHT22;28397;44.552;-0.848;2023-02-22T02:39:34;11.60;99.90
42743;DHT22;28397;44.552;-0.848;2023-02-22T02:42:02;11.60;99.90
42743;DHT22;28397;44.552;-0.848;2023-02-22T02:44:52;11.60;99.90
42743;DHT22;28397;44.552;-0.848;2023-02-22T02:47:27;11.50;99.90
42743;DHT22;28397;44.552;-0.848;2023-02-22T02:50:03;11.50;99.90
42743;DHT22;28397;44.552;-0.848;2023-02-22T02:52:33;11.50;99.90
42743;DHT22;28397;44.552;-0.848;2023-02-22T02:55:00;11.40;99.90
42743;DHT22;28397;44.552;-0.848;2023-02-22T02:57:27;11.40;99.90
42743;DHT22;28397;44.552;-0.848;2023-02-22T02:59:52;11.40;99.90
42743;DHT22;28397;44.552;-0.848;2023-02-22T03:02:48;11.40;99.90
42743;DHT22;28397;44.552;-0.848;2023-02-22T03:11:06;11.40;99.90
42743;DHT22;28397;44.552;-0.848;2023-02-22T03:19:25;11.40;99.90
42743;DHT22;28397;44.552;-0.848;2023-02-22T03:29:24;11.40;99.90
42743;DHT22;28397;44.552;-0.848;2023-02-22T03:31:56;11.40;99.90
42743;DHT22;28397;44.552;-0.848;2023-02-22T03:34:32;11.50;99.90
42743;DHT22;28397;44.552;-0.848;2023-02-22T03:37:02;11.50;99.90
42743;DHT22;28397;44.552;-0.848;2023-02-22T03:39:31;11.60;99.90
42743;DHT22;28397;44.552;-0.848;2023-02-22T03:42:05;11.60;99.90
42743;DHT22;28397;44.552;-0.848;2023-02-22T03:44:34;11.60;99.90
42743;DHT22;28397;44.552;-0.848;2023-02-22T03:47:06;11.60;99.90
42743;DHT22;28397;44.552;-0.848;2023-02-22T03:49:41;11.60;99.90
42743;DHT22;28397;44.552;-0.848;2023-02-22T03:52:10;11.70;99.90
42743;DHT22;28397;44.552;-0.848;2023-02-22T03:54:38;11.70;99.90
42743;DHT22;28397;44.552;-0.848;2023-02-22T03:57:09;11.70;99.90
42743;DHT22;28397;44.552;-0.848;2023-02-22T03:59:37;11.70;99.90
42743;DHT22;28397;44.552;-0.848;2023-02-22T04:02:04;11.70;99.90
42743;DHT22;28397;44.552;-0.848;2023-02-22T04:04:29;11.60;99.90
42743;DHT22;28397;44.552;-0.848;2023-02-22T04:06:56;11.60;99.90
42743;DHT22;28397;44.552;-0.848;2023-02-22T04:09:21;11.70;99.90
42743;DHT22;28397;44.552;-0.848;2023-02-22T04:11:47;11.80;99.90
42743;DHT22;28397;44.552;-0.848;2023-02-22T04:14:13;11.90;99.90
42743;DHT22;28397;44.552;-0.848;2023-02-22T04:16:39;11.80;99.90
42743;DHT22;28397;44.552;-0.848;2023-02-22T04:19:05;11.70;99.90
42743;DHT22;28397;44.552;-0.848;2023-02-22T04:21:31;11.80;99.90
42743;DHT22;28397;44.552;-0.848;2023-02-22T04:23:57;11.80;99.90
42743;DHT22;28397;44.552;-0.848;2023-02-22T04:26:23;11.80;99.90
42743;DHT22;28397;44.552;-0.848;2023-02-22T04:28:48;11.70;99.90
42743;DHT22;28397;44.552;-0.848;2023-02-22T04:31:15;11.70;99.90
42743;DHT22;28397;44.552;-0.848;2023-02-22T04:33:41;11.70;99.90
42743;DHT22;28397;44.552;-0.848;2023-02-22T04:36:08;11.70;99.90
42743;DHT22;28397;44.552;-0.848;2023-02-22T04:38:33;11.70;99.90
42743;DHT22;28397;44.552;-0.848;2023-02-22T04:40:59;11.60;99.90
42743;DHT22;28397;44.552;-0.848;2023-02-22T04:43:25;11.70;99.90
42743;DHT22;28397;44.552;-0.848;2023-02-22T04:45:51;11.70;99.90
42743;DHT22;28397;44.552;-0.848;2023-02-22T04:48:16;11.80;99.90
42743;DHT22;28397;44.552;-0.848;2023-02-22T04:50:42;11.60;99.90
42743;DHT22;28397;44.552;-0.848;2023-02-22T04:53:08;11.70;99.90
42743;DHT22;28397;44.552;-0.848;2023-02-22T04:55:34;11.80;99.90
42743;DHT22;28397;44.552;-0.848;2023-02-22T04:57:59;11.80;99.90
42743;DHT22;28397;44.552;-0.848;2023-02-22T05:00:25;11.70;99.90
42743;DHT22;28397;44.552;-0.848;2023-02-22T05:02:51;11.70;99.90
42743;DHT22;28397;44.552;-0.848;2023-02-22T05:05:19;11.80;99.90
42743;DHT22;28397;44.552;-0.848;2023-02-22T05:07:49;11.80;99.90
42743;DHT22;28397;44.552;-0.848;2023-02-22T05:10:15;11.80;99.90
42743;DHT22;28397;44.552;-0.848;2023-02-22T05:12:41;11.80;99.90
42743;DHT22;28397;44.552;-0.848;2023-02-22T05:15:07;11.80;99.90
42743;DHT22;28397;44.552;-0.848;2023-02-22T05:17:34;11.70;99.90
42743;DHT22;28397;44.552;-0.848;2023-02-22T05:20:00;11.70;99.90
42743;DHT22;28397;44.552;-0.848;2023-02-22T05:22:27;11.80;99.90
42743;DHT22;28397;44.552;-0.848;2023-02-22T05:24:53;11.80;99.90
42743;DHT22;28397;44.552;-0.848;2023-02-22T05:27:19;11.80;99.90
42743;DHT22;28397;44.552;-0.848;2023-02-22T05:29:45;11.90;99.90
42743;DHT22;28397;44.552;-0.848;2023-02-22T05:32:11;11.80;99.90
42743;DHT22;28397;44.552;-0.848;2023-02-22T05:34:37;11.80;99.90
42743;DHT22;28397;44.552;-0.848;2023-02-22T05:37:03;11.80;99.90
42743;DHT22;28397;44.552;-0.848;2023-02-22T05:39:29;11.90;99.90
42743;DHT22;28397;44.552;-0.848;2023-02-22T05:41:55;11.80;99.90
42743;DHT22;28397;44.552;-0.848;2023-02-22T05:44:21;11.80;99.90
42743;DHT22;28397;44.552;-0.848;2023-02-22T05:46:47;11.90;99.90
42743;DHT22;28397;44.552;-0.848;2023-02-22T05:49:12;11.90;99.90
42743;DHT22;28397;44.552;-0.848;2023-02-22T05:51:38;11.90;99.90
42743;DHT22;28397;44.552;-0.848;2023-02-22T05:54:04;11.80;99.90
42743;DHT22;28397;44.552;-0.848;2023-02-22T05:56:29;11.80;99.90
42743;DHT22;28397;44.552;-0.848;2023-02-22T05:58:56;11.80;99.90
42743;DHT22;28397;44.552;-0.848;2023-02-22T06:01:23;11.80;99.90
42743;DHT22;28397;44.552;-0.848;2023-02-22T06:03:50;11.70;99.90
42743;DHT22;28397;44.552;-0.848;2023-02-22T06:06:16;11.80;99.90
42743;DHT22;28397;44.552;-0.848;2023-02-22T06:08:43;11.80;99.90
42743;DHT22;28397;44.552;-0.848;2023-02-22T06:11:09;11.80;99.90
42743;DHT22;28397;44.552;-0.848;2023-02-22T06:13:35;11.80;99.90
42743;DHT22;28397;44.552;-0.848;2023-02-22T06:16:02;11.70;99.90
42743;DHT22;28397;44.552;-0.848;2023-02-22T06:18:28;11.80;99.90
42743;DHT22;28397;44.552;-0.848;2023-02-22T06:20:56;11.70;99.90
42743;DHT22;28397;44.552;-0.848;2023-02-22T06:23:22;11.60;99.90
42743;DHT22;28397;44.552;-0.848;2023-02-22T06:25:48;11.70;99.90
42743;DHT22;28397;44.552;-0.848;2023-02-22T06:28:14;11.80;99.90
42743;DHT22;28397;44.552;-0.848;2023-02-22T06:30:40;11.70;99.90
42743;DHT22;28397;44.552;-0.848;2023-02-22T06:33:08;11.70;99.90
42743;DHT22;28397;44.552;-0.848;2023-02-22T06:35:34;11.70;99.90
42743;DHT22;28397;44.552;-0.848;2023-02-22T06:38:00;11.70;99.90
42743;DHT22;28397;44.552;-0.848;2023-02-22T06:40:25;11.70;99.90
42743;DHT22;28397;44.552;-0.848;2023-02-22T06:42:55;11.70;99.90
42743;DHT22;28397;44.552;-0.848;2023-02-22T06:45:21;11.70;99.90
42743;DHT22;28397;44.552;-0.848;2023-02-22T06:47:47;11.80;99.90
42743;DHT22;28397;44.552;-0.848;2023-02-22T06:50:25;11.80;99.90
42743;DHT22;28397;44.552;-0.848;2023-02-22T06:52:53;11.70;99.90
42743;DHT22;28397;44.552;-0.848;2023-02-22T06:55:21;11.70;99.90
42743;DHT22;28397;44.552;-0.848;2023-02-22T06:57:47;11.70;99.90
42743;DHT22;28397;44.552;-0.848;2023-02-22T07:00:16;11.70;99.90
42743;DHT22;28397;44.552;-0.848;2023-02-22T07:02:42;11.70;99.90
42743;DHT22;28397;44.552;-0.848;2023-02-22T07:05:10;11.70;99.90
42743;DHT22;28397;44.552;-0.848;2023-02-22T07:07:37;11.70;99.90
42743;DHT22;28397;44.552;-0.848;2023-02-22T07:10:07;11.70;99.90
42743;DHT22;28397;44.552;-0.848;2023-02-22T07:12:34;11.70;99.90
42743;DHT22;28397;44.552;-0.848;2023-02-22T07:15:00;11.70;99.90
42743;DHT22;28397;44.552;-0.848;2023-02-22T07:17:25;11.70;99.90
42743;DHT22;28397;44.552;-0.848;2023-02-22T07:19:51;11.80;99.90
42743;DHT22;28397;44.552;-0.848;2023-02-22T07:22:17;11.80;99.90
42743;DHT22;28397;44.552;-0.848;2023-02-22T07:24:42;11.80;99.90
42743;DHT22;28397;44.552;-0.848;2023-02-22T07:27:08;11.80;99.90
42743;DHT22;28397;44.552;-0.848;2023-02-22T07:29:34;11.80;99.90
42743;DHT22;28397;44.552;-0.848;2023-02-22T07:32:01;11.90;99.90
42743;DHT22;28397;44.552;-0.848;2023-02-22T07:34:27;11.90;99.90
42743;DHT22;28397;44.552;-0.848;2023-02-22T07:36:52;11.90;99.90
42743;DHT22;28397;44.552;-0.848;2023-02-22T07:39:18;12.00;99.90
42743;DHT22;28397;44.552;-0.848;2023-02-22T07:41:44;11.90;99.90
42743;DHT22;28397;44.552;-0.848;2023-02-22T07:44:09;12.00;99.90
42743;DHT22;28397;44.552;-0.848;2023-02-22T07:46:35;12.10;99.90
42743;DHT22;28397;44.552;-0.848;2023-02-22T07:49:01;12.10;99.90
42743;DHT22;28397;44.552;-0.848;2023-02-22T07:51:26;12.20;99.90
42743;DHT22;28397;44.552;-0.848;2023-02-22T07:53:52;12.20;99.90
42743;DHT22;28397;44.552;-0.848;2023-02-22T07:56:18;12.20;99.90
42743;DHT22;28397;44.552;-0.848;2023-02-22T07:58:44;12.20;99.90
42743;DHT22;28397;44.552;-0.848;2023-02-22T08:01:09;12.30;99.90
42743;DHT22;28397;44.552;-0.848;2023-02-22T08:03:35;12.30;99.90
42743;DHT22;28397;44.552;-0.848;2023-02-22T08:06:03;12.30;99.90
42743;DHT22;28397;44.552;-0.848;2023-02-22T08:08:29;12.40;99.90
42743;DHT22;28397;44.552;-0.848;2023-02-22T08:10:55;12.40;99.90
42743;DHT22;28397;44.552;-0.848;2023-02-22T08:13:21;12.40;99.90
42743;DHT22;28397;44.552;-0.848;2023-02-22T08:15:50;12.40;99.90
42743;DHT22;28397;44.552;-0.848;2023-02-22T08:18:17;12.30;99.90
42743;DHT22;28397;44.552;-0.848;2023-02-22T08:20:46;12.30;99.90
42743;DHT22;28397;44.552;-0.848;2023-02-22T08:23:13;12.30;99.90
42743;DHT22;28397;44.552;-0.848;2023-02-22T08:25:39;12.30;99.90
42743;DHT22;28397;44.552;-0.848;2023-02-22T08:28:12;12.40;99.90
42743;DHT22;28397;44.552;-0.848;2023-02-22T08:30:40;12.50;99.90
42743;DHT22;28397;44.552;-0.848;2023-02-22T08:33:08;12.60;99.90
42743;DHT22;28397;44.552;-0.848;2023-02-22T08:35:35;12.50;99.90
42743;DHT22;28397;44.552;-0.848;2023-02-22T08:38:03;12.60;99.90
42743;DHT22;28397;44.552;-0.848;2023-02-22T08:40:31;12.70;99.90
42743;DHT22;28397;44.552;-0.848;2023-02-22T08:42:57;12.70;99.90
42743;DHT22;28397;44.552;-0.848;2023-02-22T08:45:23;12.60;99.90
42743;DHT22;28397;44.552;-0.848;2023-02-22T08:47:49;12.60;99.90
42743;DHT22;28397;44.552;-0.848;2023-02-22T08:50:19;12.70;99.90
42743;DHT22;28397;44.552;-0.848;2023-02-22T08:52:44;12.70;99.90
42743;DHT22;28397;44.552;-0.848;2023-02-22T08:55:10;12.80;99.90
42743;DHT22;28397;44.552;-0.848;2023-02-22T08:57:36;12.90;99.90
42743;DHT22;28397;44.552;-0.848;2023-02-22T09:00:03;13.10;99.90
42743;DHT22;28397;44.552;-0.848;2023-02-22T09:02:29;13.20;99.90
42743;DHT22;28397;44.552;-0.848;2023-02-22T09:04:55;13.30;99.90
42743;DHT22;28397;44.552;-0.848;2023-02-22T09:07:21;13.20;99.90
42743;DHT22;28397;44.552;-0.848;2023-02-22T09:09:46;13.10;99.90
42743;DHT22;28397;44.552;-0.848;2023-02-22T09:12:13;13.10;99.90
42743;DHT22;28397;44.552;-0.848;2023-02-22T09:14:39;13.20;99.90
42743;DHT22;28397;44.552;-0.848;2023-02-22T09:17:05;13.10;99.90
42743;DHT22;28397;44.552;-0.848;2023-02-22T09:19:31;13.10;99.90
42743;DHT22;28397;44.552;-0.848;2023-02-22T09:21:57;13.10;99.90
42743;DHT22;28397;44.552;-0.848;2023-02-22T09:24:24;13.10;99.90
42743;DHT22;28397;44.552;-0.848;2023-02-22T09:26:50;13.10;99.90
42743;DHT22;28397;44.552;-0.848;2023-02-22T09:29:20;13.10;99.90
42743;DHT22;28397;44.552;-0.848;2023-02-22T09:31:49;13.10;99.90
42743;DHT22;28397;44.552;-0.848;2023-02-22T09:34:16;13.20;99.90
42743;DHT22;28397;44.552;-0.848;2023-02-22T09:36:43;13.40;99.90
42743;DHT22;28397;44.552;-0.848;2023-02-22T09:39:11;13.50;99.90
42743;DHT22;28397;44.552;-0.848;2023-02-22T09:44:34;13.50;99.90
42743;DHT22;28397;44.552;-0.848;2023-02-22T09:47:02;13.60;99.90
42743;DHT22;28397;44.552;-0.848;2023-02-22T09:50:01;13.60;99.90
42743;DHT22;28397;44.552;-0.848;2023-02-22T09:52:35;13.60;99.90
42743;DHT22;28397;44.552;-0.848;2023-02-22T09:57:40;14.00;99.90
42743;DHT22;28397;44.552;-0.848;2023-02-22T10:00:12;14.00;99.90
42743;DHT22;28397;44.552;-0.848;2023-02-22T10:06:10;14.20;99.90
42743;DHT22;28397;44.552;-0.848;2023-02-22T10:08:38;14.50;99.90
42743;DHT22;28397;44.552;-0.848;2023-02-22T10:21:40;14.80;99.90
42743;DHT22;28397;44.552;-0.848;2023-02-22T10:26:37;14.90;99.90
42743;DHT22;28397;44.552;-0.848;2023-02-22T10:31:51;14.60;99.90
42743;DHT22;28397;44.552;-0.848;2023-02-22T10:34:24;14.70;99.90
42743;DHT22;28397;44.552;-0.848;2023-02-22T10:36:56;14.70;99.90
42743;DHT22;28397;44.552;-0.848;2023-02-22T10:41:56;15.30;99.90
42743;DHT22;28397;44.552;-0.848;2023-02-22T10:44:23;15.40;99.90
42743;DHT22;28397;44.552;-0.848;2023-02-22T10:46:49;15.30;99.90
42743;DHT22;28397;44.552;-0.848;2023-02-22T10:49:21;15.10;99.90
42743;DHT22;28397;44.552;-0.848;2023-02-22T10:52:50;15.00;99.90
42743;DHT22;28397;44.552;-0.848;2023-02-22T10:54:59;14.90;99.90
42743;DHT22;28397;44.552;-0.848;2023-02-22T10:57:32;14.90;99.90
42743;DHT22;28397;44.552;-0.848;2023-02-22T11:03:02;14.80;99.90
42743;DHT22;28397;44.552;-0.848;2023-02-22T11:08:28;15.00;99.90
42743;DHT22;28397;44.552;-0.848;2023-02-22T11:10:58;15.50;99.90
42743;DHT22;28397;44.552;-0.848;2023-02-22T11:13:38;15.90;99.90
42743;DHT22;28397;44.552;-0.848;2023-02-22T11:18:45;17.10;99.90
42743;DHT22;28397;44.552;-0.848;2023-02-22T11:21:11;17.10;99.90
42743;DHT22;28397;44.552;-0.848;2023-02-22T11:23:40;17.40;99.90
42743;DHT22;28397;44.552;-0.848;2023-02-22T11:28:32;17.20;99.90
42743;DHT22;28397;44.552;-0.848;2023-02-22T11:33:52;16.20;99.90
42743;DHT22;28397;44.552;-0.848;2023-02-22T11:36:38;15.90;99.90
42743;DHT22;28397;44.552;-0.848;2023-02-22T11:39:27;15.60;99.90
42743;DHT22;28397;44.552;-0.848;2023-02-22T11:41:57;16.10;99.90
42743;DHT22;28397;44.552;-0.848;2023-02-22T11:46:52;16.20;99.90
42743;DHT22;28397;44.552;-0.848;2023-02-22T11:49:22;16.10;99.90
42743;DHT22;28397;44.552;-0.848;2023-02-22T11:57:26;16.50;99.90
42743;DHT22;28397;44.552;-0.848;2023-02-22T12:00:13;16.90;99.90
42743;DHT22;28397;44.552;-0.848;2023-02-22T12:08:55;16.70;99.90
42743;DHT22;28397;44.552;-0.848;2023-02-22T12:16:47;16.50;99.90
42743;DHT22;28397;44.552;-0.848;2023-02-22T12:19:26;15.90;99.90
42743;DHT22;28397;44.552;-0.848;2023-02-22T12:22:43;15.60;99.90
42743;DHT22;28397;44.552;-0.848;2023-02-22T12:25:22;15.70;99.90
42743;DHT22;28397;44.552;-0.848;2023-02-22T12:27:56;16.30;99.90
42743;DHT22;28397;44.552;-0.848;2023-02-22T12:30:29;16.70;99.90
42743;DHT22;28397;44.552;-0.848;2023-02-22T12:33:04;16.70;99.90
42743;DHT22;28397;44.552;-0.848;2023-02-22T12:35:34;16.90;99.90
42743;DHT22;28397;44.552;-0.848;2023-02-22T12:38:21;17.00;99.90
42743;DHT22;28397;44.552;-0.848;2023-02-22T12:40:55;17.30;99.90
42743;DHT22;28397;44.552;-0.848;2023-02-22T12:43:33;17.00;99.90
42743;DHT22;28397;44.552;-0.848;2023-02-22T12:59:34;16.90;99.90
42743;DHT22;28397;44.552;-0.848;2023-02-22T13:04:53;16.80;99.90
42743;DHT22;28397;44.552;-0.848;2023-02-22T13:13:58;15.70;99.90
42743;DHT22;28397;44.552;-0.848;2023-02-22T13:16:39;15.60;99.90
42743;DHT22;28397;44.552;-0.848;2023-02-22T13:19:27;15.10;99.90
42743;DHT22;28397;44.552;-0.848;2023-02-22T13:22:16;15.10;99.90
42743;DHT22;28397;44.552;-0.848;2023-02-22T13:28:49;15.20;99.90
42743;DHT22;28397;44.552;-0.848;2023-02-22T13:31:35;15.30;99.90
42743;DHT22;28397;44.552;-0.848;2023-02-22T13:47:50;14.30;99.90
42743;DHT22;28397;44.552;-0.848;2023-02-22T13:53:06;14.60;99.90
42743;DHT22;28397;44.552;-0.848;2023-02-22T13:55:38;14.30;99.90
42743;DHT22;28397;44.552;-0.848;2023-02-22T13:58:07;14.10;99.90
42743;DHT22;28397;44.552;-0.848;2023-02-22T14:18:45;15.00;99.90
42743;DHT22;28397;44.552;-0.848;2023-02-22T14:21:21;15.10;99.90
42743;DHT22;28397;44.552;-0.848;2023-02-22T14:23:51;14.90;99.90
42743;DHT22;28397;44.552;-0.848;2023-02-22T14:26:28;14.70;99.90
42743;DHT22;28397;44.552;-0.848;2023-02-22T14:31:31;15.00;99.90
42743;DHT22;28397;44.552;-0.848;2023-02-22T14:44:47;14.60;99.90
42743;DHT22;28397;44.552;-0.848;2023-02-22T14:47:23;14.20;99.90
42743;DHT22;28397;44.552;-0.848;2023-02-22T14:49:56;14.10;99.90
42743;DHT22;28397;44.552;-0.848;2023-02-22T14:52:27;14.00;99.90
42743;DHT22;28397;44.552;-0.848;2023-02-22T14:55:03;14.20;99.90
42743;DHT22;28397;44.552;-0.848;2023-02-22T14:57:50;14.30;99.90
42743;DHT22;28397;44.552;-0.848;2023-02-22T15:00:22;14.30;99.90
42743;DHT22;28397;44.552;-0.848;2023-02-22T15:02:57;14.50;99.90
42743;DHT22;28397;44.552;-0.848;2023-02-22T15:05:25;14.60;99.90
42743;DHT22;28397;44.552;-0.848;2023-02-22T15:08:00;14.60;99.90
42743;DHT22;28397;44.552;-0.848;2023-02-22T15:10:29;14.60;99.90
42743;DHT22;28397;44.552;-0.848;2023-02-22T15:13:02;14.70;99.90
42743;DHT22;28397;44.552;-0.848;2023-02-22T15:15:55;14.90;99.90
42743;DHT22;28397;44.552;-0.848;2023-02-22T15:20:49;14.70;99.90
42743;DHT22;28397;44.552;-0.848;2023-02-22T15:23:24;14.70;99.90
42743;DHT22;28397;44.552;-0.848;2023-02-22T15:25:51;14.50;99.90
42743;DHT22;28397;44.552;-0.848;2023-02-22T15:28:17;14.60;99.90
42743;DHT22;28397;44.552;-0.848;2023-02-22T15:30:43;14.40;99.90
42743;DHT22;28397;44.552;-0.848;2023-02-22T15:33:17;14.30;99.90
42743;DHT22;28397;44.552;-0.848;2023-02-22T15:35:57;14.50;99.90
42743;DHT22;28397;44.552;-0.848;2023-02-22T15:38:28;14.40;99.90
42743;DHT22;28397;44.552;-0.848;2023-02-22T15:41:02;14.40;99.90
42743;DHT22;28397;44.552;-0.848;2023-02-22T15:43:28;14.30;99.90
42743;DHT22;28397;44.552;-0.848;2023-02-22T15:45:57;14.20;99.90
42743;DHT22;28397;44.552;-0.848;2023-02-22T15:48:24;14.20;99.90
42743;DHT22;28397;44.552;-0.848;2023-02-22T15:51:04;14.20;99.90
42743;DHT22;28397;44.552;-0.848;2023-02-22T15:54:07;13.90;99.90
42743;DHT22;28397;44.552;-0.848;2023-02-22T15:56:28;13.90;99.90
42743;DHT22;28397;44.552;-0.848;2023-02-22T15:59:01;13.80;99.90
42743;DHT22;28397;44.552;-0.848;2023-02-22T16:01:28;13.70;99.90
42743;DHT22;28397;44.552;-0.848;2023-02-22T16:03:58;13.70;99.90
42743;DHT22;28397;44.552;-0.848;2023-02-22T16:06:33;13.60;99.90
42743;DHT22;28397;44.552;-0.848;2023-02-22T16:11:41;13.50;99.90
42743;DHT22;28397;44.552;-0.848;2023-02-22T16:17:34;13.30;99.90
42743;DHT22;28397;44.552;-0.848;2023-02-22T16:22:37;13.20;99.90
42743;DHT22;28397;44.552;-0.848;2023-02-22T16:25:30;13.20;99.90
42743;DHT22;28397;44.552;-0.848;2023-02-22T16:28:00;13.30;99.90
42743;DHT22;28397;44.552;-0.848;2023-02-22T16:30:32;13.20;99.90
42743;DHT22;28397;44.552;-0.848;2023-02-22T16:33:02;13.10;99.90
42743;DHT22;28397;44.552;-0.848;2023-02-22T16:35:30;13.10;99.90
42743;DHT22;28397;44.552;-0.848;2023-02-22T16:38:02;13.10;99.90
42743;DHT22;28397;44.552;-0.848;2023-02-22T16:40:30;13.10;99.90
42743;DHT22;28397;44.552;-0.848;2023-02-22T16:43:05;13.10;99.90
42743;DHT22;28397;44.552;-0.848;2023-02-22T16:45:31;13.00;99.90
42743;DHT22;28397;44.552;-0.848;2023-02-22T16:48:01;13.10;99.90
42743;DHT22;28397;44.552;-0.848;2023-02-22T16:50:29;13.00;99.90
42743;DHT22;28397;44.552;-0.848;2023-02-22T16:52:55;13.00;99.90
42743;DHT22;28397;44.552;-0.848;2023-02-22T16:55:23;13.00;99.90
42743;DHT22;28397;44.552;-0.848;2023-02-22T16:57:49;13.00;99.90
42743;DHT22;28397;44.552;-0.848;2023-02-22T17:00:20;13.00;99.90
42743;DHT22;28397;44.552;-0.848;2023-02-22T17:02:58;13.10;99.90
42743;DHT22;28397;44.552;-0.848;2023-02-22T17:05:29;13.00;99.90
42743;DHT22;28397;44.552;-0.848;2023-02-22T17:07:55;13.00;99.90
42743;DHT22;28397;44.552;-0.848;2023-02-22T17:10:21;12.90;99.90
42743;DHT22;28397;44.552;-0.848;2023-02-22T17:12:49;12.90;99.90
42743;DHT22;28397;44.552;-0.848;2023-02-22T17:15:26;12.90;99.90
42743;DHT22;28397;44.552;-0.848;2023-02-22T17:17:54;12.90;99.90
42743;DHT22;28397;44.552;-0.848;2023-02-22T17:20:20;12.90;99.90
42743;DHT22;28397;44.552;-0.848;2023-02-22T17:23:02;12.90;99.90
42743;DHT22;28397;44.552;-0.848;2023-02-22T17:25:35;12.80;99.90
42743;DHT22;28397;44.552;-0.848;2023-02-22T17:28:01;12.70;99.90
42743;DHT22;28397;44.552;-0.848;2023-02-22T17:30:27;12.70;99.90
42743;DHT22;28397;44.552;-0.848;2023-02-22T17:32:53;12.70;99.90
42743;DHT22;28397;44.552;-0.848;2023-02-22T17:35:21;12.60;99.90
42743;DHT22;28397;44.552;-0.848;2023-02-22T17:37:49;12.60;99.90
42743;DHT22;28397;44.552;-0.848;2023-02-22T17:40:15;12.60;99.90
42743;DHT22;28397;44.552;-0.848;2023-02-22T17:42:42;12.60;99.90
42743;DHT22;28397;44.552;-0.848;2023-02-22T17:45:10;12.50;99.90
42743;DHT22;28397;44.552;-0.848;2023-02-22T17:47:41;12.50;99.90
42743;DHT22;28397;44.552;-0.848;2023-02-22T17:50:11;12.50;99.90
42743;DHT22;28397;44.552;-0.848;2023-02-22T17:52:37;12.50;99.90
42743;DHT22;28397;44.552;-0.848;2023-02-22T17:55:04;12.40;99.90
42743;DHT22;28397;44.552;-0.848;2023-02-22T17:57:30;12.40;99.90
42743;DHT22;28397;44.552;-0.848;2023-02-22T17:59:57;12.40;99.90
42743;DHT22;28397;44.552;-0.848;2023-02-22T18:02:23;12.40;99.90
42743;DHT22;28397;44.552;-0.848;2023-02-22T18:04:48;12.40;99.90
42743;DHT22;28397;44.552;-0.848;2023-02-22T18:07:14;12.40;99.90
42743;DHT22;28397;44.552;-0.848;2023-02-22T18:09:44;12.40;99.90
42743;DHT22;28397;44.552;-0.848;2023-02-22T18:12:10;12.30;99.90
42743;DHT22;28397;44.552;-0.848;2023-02-22T18:14:36;12.30;99.90
42743;DHT22;28397;44.552;-0.848;2023-02-22T18:17:02;12.30;99.90
42743;DHT22;28397;44.552;-0.848;2023-02-22T18:19:28;12.30;99.90
42743;DHT22;28397;44.552;-0.848;2023-02-22T18:21:54;12.20;99.90
42743;DHT22;28397;44.552;-0.848;2023-02-22T18:24:25;12.20;99.90
42743;DHT22;28397;44.552;-0.848;2023-02-22T18:26:51;12.20;99.90
42743;DHT22;28397;44.552;-0.848;2023-02-22T18:29:17;12.20;99.90
42743;DHT22;28397;44.552;-0.848;2023-02-22T18:31:43;12.20;99.90
42743;DHT22;28397;44.552;-0.848;2023-02-22T18:34:10;12.20;99.90
42743;DHT22;28397;44.552;-0.848;2023-02-22T18:36:38;12.20;99.90